createdAt,value
2024-02-29T00:00:35.800Z,9.65
2024-02-29T00:03:02.268Z,9.82
2024-02-29T00:05:28.659Z,11.23
2024-02-29T00:07:55.121Z,10.13
2024-02-29T00:10:22.059Z,9.30
2024-02-29T00:12:48.483Z,9.60
2024-02-29T00:15:14.979Z,9.48
2024-02-29T00:17:42.076Z,8.95
2024-02-29T00:20:10.363Z,8.90
2024-02-29T00:22:37.486Z,8.50
2024-02-29T00:25:04.187Z,9.30
2024-02-29T00:27:31.980Z,8.23
2024-02-29T00:29:58.644Z,8.65
2024-02-29T00:32:25.162Z,9.40
2024-02-29T00:34:51.591Z,8.52
2024-02-29T00:37:18.082Z,8.52
2024-02-29T00:39:44.570Z,9.05
2024-02-29T00:42:10.989Z,9.35
2024-02-29T00:44:37.508Z,9.77
2024-02-29T00:47:03.952Z,9.38
2024-02-29T00:49:30.437Z,9.57
2024-02-29T00:51:56.904Z,9.82
2024-02-29T00:54:26.319Z,9.70
2024-02-29T00:56:52.809Z,9.23
2024-02-29T00:59:19.353Z,9.38
2024-02-29T01:01:45.948Z,9.75
2024-02-29T01:04:12.447Z,9.82
2024-02-29T01:06:38.920Z,9.27
2024-02-29T01:09:05.531Z,10.80
2024-02-29T01:11:32.588Z,9.93
2024-02-29T01:13:59.014Z,10.60
2024-02-29T01:16:25.432Z,9.50
2024-02-29T01:18:51.902Z,9.93
2024-02-29T01:21:18.507Z,9.88
2024-02-29T01:23:44.947Z,10.00
2024-02-29T01:26:11.869Z,9.38
2024-02-29T01:28:38.418Z,9.70
2024-02-29T01:31:05.155Z,10.10
2024-02-29T01:33:32.084Z,10.43
2024-02-29T01:35:58.552Z,10.55
2024-02-29T01:38:24.965Z,11.68
2024-02-29T01:40:51.428Z,10.40
2024-02-29T01:43:17.927Z,12.43
2024-02-29T01:45:44.509Z,10.52
2024-02-29T01:48:12.810Z,10.40
2024-02-29T01:50:39.818Z,9.93
2024-02-29T01:53:06.747Z,8.68
2024-02-29T01:55:33.318Z,10.63
2024-02-29T01:57:59.832Z,9.88
2024-02-29T02:00:26.362Z,11.07
2024-02-29T02:02:53.520Z,11.05
2024-02-29T02:05:20.791Z,9.75
2024-02-29T02:07:47.925Z,10.50
2024-02-29T02:10:14.376Z,9.45
2024-02-29T02:12:40.949Z,9.73
2024-02-29T02:15:08.128Z,10.35
2024-02-29T02:17:34.878Z,10.20
2024-02-29T02:20:01.903Z,10.15
2024-02-29T02:22:29.717Z,11.98
2024-02-29T02:24:56.712Z,10.63
2024-02-29T02:27:23.219Z,11.48
2024-02-29T02:29:49.627Z,10.30
2024-02-29T02:32:16.062Z,10.25
2024-02-29T02:34:42.461Z,11.10
2024-02-29T02:37:09.011Z,10.73
2024-02-29T02:39:35.550Z,9.98
2024-02-29T02:42:02.321Z,11.82
2024-02-29T02:44:28.747Z,9.63
2024-02-29T02:46:55.157Z,11.65
2024-02-29T02:49:21.761Z,10.73
2024-02-29T02:51:48.356Z,10.38
2024-02-29T02:54:14.883Z,10.38
2024-02-29T02:56:41.302Z,9.20
2024-02-29T02:59:07.699Z,10.18
2024-02-29T03:01:34.157Z,10.00
2024-02-29T03:04:00.832Z,10.27
2024-02-29T03:06:27.371Z,9.80
2024-02-29T03:08:53.823Z,10.98
2024-02-29T03:11:20.296Z,10.25
2024-02-29T03:13:46.763Z,10.15
2024-02-29T03:16:20.592Z,9.20
2024-02-29T03:18:47.214Z,10.70
2024-02-29T03:21:15.623Z,10.15
2024-02-29T03:23:42.272Z,10.35
2024-02-29T03:26:08.758Z,10.98
2024-02-29T03:28:35.201Z,10.73
2024-02-29T03:31:01.864Z,10.63
2024-02-29T03:33:28.328Z,11.07
2024-02-29T03:35:54.835Z,9.45
2024-02-29T03:38:22.412Z,9.15
2024-02-29T03:40:50.554Z,10.52
2024-02-29T03:43:17.046Z,9.88
2024-02-29T03:45:43.496Z,11.63
2024-02-29T03:48:10.045Z,11.48
2024-02-29T03:50:36.469Z,10.32
2024-02-29T03:53:02.988Z,11.48
2024-02-29T03:55:29.437Z,12.50
2024-02-29T03:57:55.992Z,12.32
2024-02-29T04:00:22.651Z,10.50
2024-02-29T04:02:49.100Z,10.35
2024-02-29T04:05:15.629Z,10.88
2024-02-29T04:07:42.907Z,9.68
2024-02-29T04:10:11.878Z,10.95
2024-02-29T04:12:38.622Z,11.85
2024-02-29T04:15:05.532Z,9.93
2024-02-29T04:17:33.141Z,9.52
2024-02-29T04:19:59.627Z,9.95
2024-02-29T04:22:26.070Z,9.40
2024-02-29T04:24:52.554Z,9.35
2024-02-29T04:27:19.556Z,9.13
2024-02-29T04:29:47.234Z,9.88
2024-02-29T04:32:13.743Z,9.95
2024-02-29T04:34:40.291Z,11.25
2024-02-29T04:37:06.763Z,10.75
2024-02-29T04:39:33.342Z,10.73
2024-02-29T04:41:59.793Z,9.77
2024-02-29T04:44:26.247Z,9.77
2024-02-29T04:46:53.013Z,9.48
2024-02-29T04:49:19.853Z,10.85
2024-02-29T04:51:46.350Z,10.27
2024-02-29T04:54:12.805Z,9.88
2024-02-29T04:56:39.917Z,9.95
2024-02-29T04:59:08.279Z,10.10
2024-02-29T05:01:34.913Z,9.32
2024-02-29T05:04:01.533Z,10.50
2024-02-29T05:06:29.094Z,11.38
2024-02-29T05:08:56.188Z,10.30
2024-02-29T05:11:22.702Z,9.60
2024-02-29T05:13:50.126Z,10.48
2024-02-29T05:16:18.340Z,10.63
2024-02-29T05:18:45.311Z,9.98
2024-02-29T05:21:11.754Z,9.38
2024-02-29T05:23:38.284Z,10.90
2024-02-29T05:26:05.740Z,11.15
2024-02-29T05:28:32.373Z,10.48
2024-02-29T05:30:59.977Z,10.75
2024-02-29T05:33:27.200Z,11.18
2024-02-29T05:35:53.618Z,11.20
2024-02-29T05:38:20.070Z,11.38
2024-02-29T05:40:48.274Z,11.68
2024-02-29T05:43:18.523Z,11.90
2024-02-29T05:45:45.056Z,11.25
2024-02-29T05:48:11.594Z,12.27
2024-02-29T05:50:38.101Z,11.25
2024-02-29T05:53:05.281Z,11.32
2024-02-29T05:55:32.463Z,12.57
2024-02-29T05:57:59.068Z,11.75
2024-02-29T06:00:25.590Z,11.45
2024-02-29T06:02:53.170Z,12.43
2024-02-29T06:05:20.916Z,10.77
2024-02-29T06:07:47.476Z,12.05
2024-02-29T06:10:14.052Z,12.85
2024-02-29T06:12:40.850Z,11.60
2024-02-29T06:15:11.108Z,13.10
2024-02-29T06:17:39.127Z,12.25
2024-02-29T06:20:11.448Z,12.15
2024-02-29T06:22:40.664Z,11.07
2024-02-29T06:25:09.870Z,11.75
2024-02-29T06:27:37.416Z,11.63
2024-02-29T06:30:05.407Z,11.98
2024-02-29T06:32:31.881Z,11.77
2024-02-29T06:34:58.338Z,11.73
2024-02-29T06:37:24.857Z,12.45
2024-02-29T06:39:51.325Z,11.00
2024-02-29T06:42:17.729Z,12.38
2024-02-29T06:44:44.158Z,12.55
2024-02-29T06:47:10.650Z,11.63
2024-02-29T06:49:37.291Z,12.95
2024-02-29T06:52:03.761Z,12.05
2024-02-29T06:54:30.275Z,11.30
2024-02-29T06:56:56.736Z,11.40
2024-02-29T06:59:23.266Z,12.50
2024-02-29T07:01:49.839Z,11.38
2024-02-29T07:04:16.568Z,13.13
2024-02-29T07:06:43.157Z,11.50
2024-02-29T07:09:09.577Z,10.75
2024-02-29T07:11:36.073Z,10.73
2024-02-29T07:14:02.511Z,11.30
2024-02-29T07:16:28.983Z,11.57
2024-02-29T07:18:55.506Z,10.85
2024-02-29T07:21:22.079Z,10.43
2024-02-29T07:23:48.632Z,12.25
2024-02-29T07:26:15.065Z,11.80
2024-02-29T07:28:41.496Z,11.32
2024-02-29T07:31:07.968Z,11.70
2024-02-29T07:33:36.400Z,11.60
2024-02-29T07:36:03.160Z,11.35
2024-02-29T07:38:29.775Z,10.98
2024-02-29T07:40:56.247Z,11.55
2024-02-29T07:43:23.385Z,10.93
2024-02-29T07:45:49.982Z,10.45
2024-02-29T07:48:16.574Z,11.02
2024-02-29T07:50:43.184Z,12.60
2024-02-29T07:53:09.750Z,11.43
2024-02-29T07:55:36.561Z,10.90
2024-02-29T07:58:04.521Z,12.85
2024-02-29T08:00:31.079Z,10.50
2024-02-29T08:02:57.483Z,11.35
2024-02-29T08:05:24.313Z,10.88
2024-02-29T08:07:50.738Z,11.18
2024-02-29T08:10:17.643Z,10.93
2024-02-29T08:12:47.541Z,11.15
2024-02-29T08:15:14.922Z,11.23
2024-02-29T08:17:41.634Z,11.95
2024-02-29T08:20:09.246Z,11.65
2024-02-29T08:22:36.641Z,11.00
2024-02-29T08:25:03.709Z,12.18
2024-02-29T08:27:30.313Z,10.80
2024-02-29T08:29:57.044Z,10.32
2024-02-29T08:32:23.477Z,10.15
2024-02-29T08:34:49.934Z,9.30
2024-02-29T08:37:16.557Z,9.65
2024-02-29T08:39:43.037Z,8.27
2024-02-29T08:42:10.945Z,9.02
2024-02-29T08:44:37.649Z,8.25
2024-02-29T08:47:05.794Z,7.90
2024-02-29T08:51:58.682Z,9.05
2024-02-29T08:54:25.144Z,7.90
2024-02-29T08:56:51.652Z,7.90
2024-02-29T08:59:18.937Z,8.40
2024-02-29T09:01:45.582Z,7.93
2024-02-29T09:04:12.151Z,7.70
2024-02-29T09:06:41.746Z,6.90
2024-02-29T09:09:08.889Z,7.75
2024-02-29T09:11:35.504Z,7.88
2024-02-29T09:14:02.150Z,7.20
2024-02-29T09:16:28.657Z,8.38
2024-02-29T09:18:55.188Z,7.78
2024-02-29T09:21:21.677Z,7.45
2024-02-29T09:23:50.686Z,8.05
2024-02-29T09:26:19.242Z,8.52
2024-02-29T09:28:46.015Z,7.85
2024-02-29T09:31:13.538Z,8.65
2024-02-29T09:33:41.169Z,8.27
2024-02-29T09:36:11.661Z,9.07
2024-02-29T09:38:41.540Z,7.93
2024-02-29T09:41:25.163Z,7.97
2024-02-29T09:43:59.633Z,9.23
2024-02-29T09:46:26.141Z,8.63
2024-02-29T09:48:53.409Z,8.57
2024-02-29T09:51:23.157Z,8.18
2024-02-29T09:53:54.385Z,8.43
2024-02-29T09:56:25.776Z,8.38
2024-02-29T09:58:52.818Z,8.15
2024-02-29T10:01:20.010Z,9.07
2024-02-29T10:03:47.624Z,9.55
2024-02-29T10:06:14.676Z,8.93
2024-02-29T10:08:41.134Z,8.32
2024-02-29T10:11:10.974Z,9.18
2024-02-29T10:13:41.542Z,9.57
2024-02-29T10:16:09.590Z,9.65
2024-02-29T10:18:37.822Z,9.93
2024-02-29T10:21:15.990Z,10.57
2024-02-29T10:23:43.457Z,9.43
2024-02-29T10:26:10.376Z,9.18
2024-02-29T10:28:37.037Z,8.77
2024-02-29T10:31:04.144Z,9.43
2024-02-29T10:33:30.808Z,11.30
2024-02-29T10:35:57.624Z,10.27
2024-02-29T10:38:24.593Z,10.25
2024-02-29T10:40:53.595Z,9.73
2024-02-29T10:43:23.677Z,10.27
2024-02-29T10:45:51.999Z,9.45
2024-02-29T10:48:36.559Z,9.05
2024-02-29T10:51:17.038Z,8.90
2024-02-29T10:54:05.472Z,9.43
2024-02-29T10:56:33.893Z,7.72
2024-02-29T10:59:06.494Z,8.20
2024-02-29T11:01:33.833Z,7.88
2024-02-29T11:04:00.817Z,7.70
2024-02-29T11:06:34.148Z,7.45
2024-02-29T11:09:02.756Z,9.05
2024-02-29T11:11:29.566Z,8.43
2024-02-29T11:14:05.494Z,8.82
2024-02-29T11:19:04.715Z,7.90
2024-02-29T11:21:31.581Z,8.73
2024-02-29T11:24:04.100Z,8.32
2024-02-29T11:26:38.263Z,7.60
2024-02-29T11:29:20.178Z,9.10
2024-02-29T11:31:50.586Z,8.43
2024-02-29T11:34:18.575Z,8.18
2024-02-29T11:36:49.129Z,8.07
2024-02-29T11:39:18.513Z,9.35
2024-02-29T11:41:45.301Z,8.95
2024-02-29T11:44:11.714Z,8.48
2024-02-29T11:46:48.372Z,8.43
2024-02-29T11:49:16.265Z,8.52
2024-02-29T11:51:46.384Z,9.15
2024-02-29T11:54:17.399Z,8.07
2024-02-29T11:56:43.936Z,8.25
2024-02-29T11:59:12.120Z,8.00
2024-02-29T12:01:38.897Z,8.57
2024-02-29T12:04:08.149Z,8.38
2024-02-29T12:06:36.587Z,7.93
2024-02-29T12:09:03.730Z,7.47
2024-02-29T12:11:32.633Z,9.15
2024-02-29T12:13:59.237Z,8.75
2024-02-29T12:16:25.923Z,9.40
2024-02-29T12:18:52.909Z,8.73
2024-02-29T12:21:19.907Z,9.52
2024-02-29T12:23:46.332Z,7.93
2024-02-29T12:26:14.601Z,7.78
2024-02-29T12:28:41.765Z,8.73
2024-02-29T12:31:09.416Z,8.80
2024-02-29T12:33:40.323Z,8.45
2024-02-29T12:36:07.996Z,7.90
2024-02-29T12:38:35.257Z,7.50
2024-02-29T12:41:06.749Z,7.88
2024-02-29T12:43:34.268Z,8.85
2024-02-29T12:46:00.714Z,8.93
2024-02-29T12:48:27.170Z,9.10
2024-02-29T12:50:54.072Z,8.50
2024-02-29T12:53:20.606Z,9.63
2024-02-29T12:55:48.431Z,9.75
2024-02-29T12:58:15.664Z,9.80
2024-02-29T13:00:42.378Z,8.75
2024-02-29T13:03:09.552Z,8.02
2024-02-29T13:05:36.755Z,9.90
2024-02-29T13:08:06.353Z,9.80
2024-02-29T13:10:32.860Z,9.48
2024-02-29T13:13:06.019Z,9.90
2024-02-29T13:15:36.343Z,10.98
2024-02-29T13:18:02.841Z,10.05
2024-02-29T13:20:29.278Z,9.02
2024-02-29T13:22:55.732Z,8.63
2024-02-29T13:25:22.333Z,8.75
2024-02-29T13:27:48.911Z,10.13
2024-02-29T13:30:15.504Z,9.85
2024-02-29T13:32:41.969Z,8.80
2024-02-29T13:35:08.474Z,10.00
2024-02-29T13:37:35.262Z,9.70
2024-02-29T13:40:01.862Z,9.82
2024-02-29T13:42:28.296Z,9.25
2024-02-29T13:44:54.722Z,10.45
2024-02-29T13:47:21.123Z,10.30
2024-02-29T13:49:47.597Z,10.55
2024-02-29T13:52:18.486Z,9.73
2024-02-29T13:54:46.315Z,8.18
2024-02-29T13:57:13.225Z,9.52
2024-02-29T13:59:39.753Z,10.10
2024-02-29T14:02:09.197Z,10.00
2024-02-29T14:04:35.655Z,9.95
2024-02-29T14:07:02.184Z,9.65
2024-02-29T14:09:28.628Z,10.15
2024-02-29T14:11:55.218Z,9.05
2024-02-29T14:14:21.648Z,9.13
2024-02-29T14:16:48.221Z,9.90
2024-02-29T14:19:14.724Z,9.07
2024-02-29T14:21:41.177Z,9.20
2024-02-29T14:24:07.649Z,9.82
2024-02-29T14:26:34.417Z,8.45
2024-02-29T14:29:00.853Z,8.25
2024-02-29T14:31:28.006Z,8.27
2024-02-29T14:33:55.684Z,8.27
2024-02-29T14:36:22.210Z,9.18
2024-02-29T14:38:51.098Z,9.23
2024-02-29T14:41:18.261Z,7.88
2024-02-29T14:43:44.689Z,9.70
2024-02-29T14:46:11.154Z,8.52
2024-02-29T14:48:37.691Z,10.00
2024-02-29T14:51:04.121Z,10.00
2024-02-29T14:53:30.526Z,8.88
2024-02-29T14:55:57.021Z,8.13
2024-02-29T14:58:24.265Z,8.80
2024-02-29T15:00:51.542Z,9.40
2024-02-29T15:03:18.187Z,10.00
2024-02-29T15:05:44.693Z,8.52
2024-02-29T15:08:11.953Z,8.77
2024-02-29T15:10:38.402Z,8.90
2024-02-29T15:13:05.023Z,7.80
2024-02-29T15:15:31.571Z,8.13
2024-02-29T15:17:58.061Z,9.50
2024-02-29T15:20:24.529Z,8.77
2024-02-29T15:22:51.018Z,8.52
2024-02-29T15:25:17.964Z,9.38
2024-02-29T15:27:47.148Z,9.57
2024-02-29T15:30:14.066Z,9.68
2024-02-29T15:32:40.707Z,8.85
2024-02-29T15:35:07.956Z,9.20
2024-02-29T15:37:34.865Z,8.70
2024-02-29T15:40:01.464Z,9.02
2024-02-29T15:42:28.034Z,8.65
2024-02-29T15:44:54.611Z,8.52
2024-02-29T15:47:21.297Z,9.80
2024-02-29T15:49:49.377Z,10.05
2024-02-29T15:52:17.865Z,10.52
2024-02-29T15:54:44.658Z,10.02
2024-02-29T15:57:12.649Z,9.18
2024-02-29T15:59:40.181Z,10.65
2024-02-29T16:02:07.365Z,10.10
2024-02-29T16:04:33.967Z,9.88
2024-02-29T16:07:00.593Z,9.75
2024-02-29T16:09:27.367Z,9.13
2024-02-29T16:11:54.087Z,10.68
2024-02-29T16:14:20.614Z,10.05
2024-02-29T16:16:47.936Z,9.15
2024-02-29T16:19:16.770Z,9.50
2024-02-29T16:21:43.300Z,11.77
2024-02-29T16:24:10.262Z,10.20
2024-02-29T16:26:37.242Z,11.63
2024-02-29T16:29:03.945Z,10.43
2024-02-29T16:31:30.672Z,10.98
2024-02-29T16:33:57.294Z,10.18
2024-02-29T16:36:23.813Z,9.65
2024-02-29T16:38:50.404Z,12.77
2024-02-29T16:41:16.817Z,11.45
2024-02-29T16:43:43.489Z,10.93
2024-02-29T16:46:10.242Z,11.35
2024-02-29T16:48:38.349Z,11.30
2024-02-29T16:51:05.593Z,11.82
2024-02-29T16:53:32.361Z,11.10
2024-02-29T16:55:59.935Z,10.90
2024-02-29T16:58:26.948Z,11.75
2024-02-29T17:00:55.417Z,11.75
2024-02-29T17:03:22.060Z,11.50
2024-02-29T17:05:48.478Z,11.85
2024-02-29T17:08:14.956Z,12.40
2024-02-29T17:10:42.053Z,11.18
2024-02-29T17:13:08.543Z,11.63
2024-02-29T17:15:38.218Z,11.30
2024-02-29T17:18:05.058Z,11.27
2024-02-29T17:20:31.546Z,12.05
2024-02-29T17:22:57.987Z,11.55
2024-02-29T17:25:24.590Z,11.15
2024-02-29T17:27:52.786Z,12.48
2024-02-29T17:30:20.550Z,10.93
2024-02-29T17:32:48.597Z,11.07
2024-02-29T17:35:17.088Z,11.43
2024-02-29T17:37:44.867Z,11.43
2024-02-29T17:40:11.898Z,10.93
2024-02-29T17:42:38.445Z,12.80
2024-02-29T17:45:05.677Z,10.52
2024-02-29T17:47:32.301Z,10.13
2024-02-29T17:49:58.925Z,10.27
2024-02-29T17:52:26.295Z,10.70
2024-02-29T17:54:53.347Z,10.30
2024-02-29T17:57:19.931Z,11.20
2024-02-29T17:59:46.380Z,9.98
2024-02-29T18:02:12.909Z,9.07
2024-02-29T18:04:39.704Z,10.25
2024-02-29T18:07:06.265Z,10.30
2024-02-29T18:09:33.180Z,9.32
2024-02-29T18:11:59.658Z,10.80
2024-02-29T18:14:26.284Z,10.30
2024-02-29T18:16:53.097Z,13.07
2024-02-29T18:19:19.616Z,11.40
2024-02-29T18:21:47.332Z,11.05
2024-02-29T18:24:13.828Z,11.52
2024-02-29T18:26:40.979Z,11.05
2024-02-29T18:29:07.566Z,11.32
2024-02-29T18:31:34.178Z,12.32
2024-02-29T18:34:00.704Z,13.13
2024-02-29T18:36:27.133Z,11.23
2024-02-29T18:38:53.564Z,12.15
2024-02-29T18:41:20.670Z,11.48
2024-02-29T18:43:47.368Z,12.30
2024-02-29T18:46:13.984Z,11.95
2024-02-29T18:48:40.628Z,11.70
2024-02-29T18:51:09.547Z,11.93
2024-02-29T18:53:35.971Z,12.70
2024-02-29T18:56:02.380Z,13.18
2024-02-29T18:58:31.206Z,10.85
2024-02-29T19:00:57.926Z,13.02
2024-02-29T19:03:24.691Z,11.30
2024-02-29T19:05:52.933Z,12.63
2024-02-29T19:08:21.461Z,12.73
2024-02-29T19:10:47.997Z,12.10
2024-02-29T19:13:14.555Z,11.82
2024-02-29T19:15:41.056Z,13.30
2024-02-29T19:20:34.260Z,12.80
2024-02-29T19:23:00.746Z,12.68
2024-02-29T19:25:27.595Z,12.65
2024-02-29T19:27:54.177Z,12.40
2024-02-29T19:30:23.189Z,12.65
2024-02-29T19:32:49.955Z,13.27
2024-02-29T19:35:16.443Z,12.13
2024-02-29T19:37:42.978Z,13.88
2024-02-29T19:40:09.666Z,12.63
2024-02-29T19:42:36.177Z,12.35
2024-02-29T19:45:04.817Z,13.68
2024-02-29T19:47:31.438Z,14.65
2024-02-29T19:49:57.914Z,12.35
2024-02-29T19:52:24.427Z,12.93
2024-02-29T19:54:52.860Z,13.57
2024-02-29T19:57:19.368Z,13.02
2024-02-29T19:59:45.817Z,13.20
2024-02-29T20:02:12.365Z,12.95
2024-02-29T20:04:38.982Z,12.93
2024-02-29T20:07:05.586Z,13.95
2024-02-29T20:09:32.788Z,13.27
2024-02-29T20:11:59.297Z,13.32
2024-02-29T20:14:25.874Z,14.10
2024-02-29T20:16:52.437Z,14.38
2024-02-29T20:19:18.977Z,12.82
2024-02-29T20:21:46.073Z,12.73
2024-02-29T20:24:13.981Z,14.82
2024-02-29T20:26:40.486Z,12.25
2024-02-29T20:29:06.967Z,13.15
2024-02-29T20:31:33.416Z,14.40
2024-02-29T20:33:59.932Z,12.63
2024-02-29T20:36:26.372Z,14.00
2024-02-29T20:38:52.782Z,12.10
2024-02-29T20:41:19.344Z,13.07
2024-02-29T20:43:45.775Z,13.95
2024-02-29T20:46:16.885Z,12.75
2024-02-29T20:48:45.646Z,14.57
2024-02-29T20:51:12.594Z,13.98
2024-02-29T20:53:39.097Z,12.00
2024-02-29T20:56:05.973Z,14.23
2024-02-29T20:58:32.447Z,12.68
2024-02-29T21:00:59.952Z,13.00
2024-02-29T21:03:26.748Z,13.32
2024-02-29T21:05:53.261Z,13.05
2024-02-29T21:08:19.676Z,13.38
2024-02-29T21:10:47.052Z,14.25
2024-02-29T21:13:13.786Z,14.02
2024-02-29T21:15:40.455Z,14.88
2024-02-29T21:18:07.741Z,13.90
2024-02-29T21:20:35.155Z,15.02
2024-02-29T21:23:01.783Z,14.48
2024-02-29T21:25:28.401Z,14.63
2024-02-29T21:27:54.981Z,16.15
2024-02-29T21:30:21.416Z,15.93
2024-02-29T21:32:49.945Z,13.82
2024-02-29T21:35:20.395Z,14.65
2024-02-29T21:37:47.291Z,15.52
2024-02-29T21:40:14.316Z,15.27
2024-02-29T21:42:40.823Z,14.90
2024-02-29T21:45:07.787Z,15.50
2024-02-29T21:47:34.300Z,16.20
2024-02-29T21:50:00.758Z,15.52
2024-02-29T21:52:27.231Z,16.00
2024-02-29T21:54:53.677Z,15.98
2024-02-29T21:57:20.143Z,15.30
2024-02-29T21:59:46.661Z,14.82
2024-02-29T22:02:14.215Z,15.88
2024-02-29T22:04:41.407Z,15.85
2024-02-29T22:07:07.991Z,15.48
2024-02-29T22:09:34.660Z,16.23
2024-02-29T22:12:01.137Z,16.08
2024-02-29T22:14:27.991Z,16.95
2024-02-29T22:16:54.394Z,17.38
2024-02-29T22:19:20.915Z,14.43
2024-02-29T22:21:47.410Z,16.38
2024-02-29T22:24:16.695Z,17.23
2024-02-29T22:26:43.529Z,16.70
2024-02-29T22:29:11.600Z,17.50
2024-02-29T22:31:40.911Z,17.40
2024-02-29T22:34:07.514Z,17.67
2024-02-29T22:36:34.075Z,16.25
2024-02-29T22:39:00.562Z,17.05
2024-02-29T22:41:26.985Z,18.08
2024-02-29T22:43:53.440Z,17.80
2024-02-29T22:46:19.945Z,20.10
2024-02-29T22:48:46.561Z,18.17
2024-02-29T22:51:12.980Z,16.42
2024-02-29T22:53:39.425Z,18.55
2024-02-29T22:56:06.351Z,17.88
2024-02-29T22:58:32.865Z,18.48
2024-02-29T23:00:59.718Z,19.67
2024-02-29T23:03:26.174Z,17.15
2024-02-29T23:05:52.597Z,19.38
2024-02-29T23:08:19.008Z,19.27
2024-02-29T23:10:45.574Z,18.90
2024-02-29T23:13:13.174Z,19.55
2024-02-29T23:15:39.759Z,18.08
2024-02-29T23:18:06.538Z,18.60
2024-02-29T23:20:33.049Z,20.83
2024-02-29T23:23:01.295Z,17.58
2024-02-29T23:25:28.019Z,18.08
2024-02-29T23:27:54.661Z,18.42
2024-02-29T23:30:21.376Z,18.85
2024-02-29T23:32:47.793Z,17.98
2024-02-29T23:35:14.416Z,18.67
2024-02-29T23:37:41.081Z,17.95
2024-02-29T23:40:08.609Z,18.48
2024-02-29T23:42:35.178Z,18.77
2024-02-29T23:45:01.628Z,17.77
2024-02-29T23:47:28.133Z,18.30
2024-02-29T23:49:54.564Z,17.40
2024-02-29T23:52:21.011Z,19.63
2024-02-29T23:54:47.591Z,21.90
2024-02-29T23:57:14.051Z,19.98
2024-02-29T23:59:40.490Z,17.40
